Carbondale, Kansas
Current Conditions -  °F | °C
As of 7:53 PM on Monday 24 Nov 2014 (Local Time) from KFOE Reporting Station
Clear Clear  
Wind Chill: 23°   Ceiling: Unl
Heat Index: 30°   Visibility: 10mi
Dew Point: 15°   Wind: 7mph
Humidity: 54%   Direction: 300°WNW
Pressure: 30.03"   Gusts: NA
Location:  38.82°N, 95.69°W
Report Text: KFOE 250153Z 30006KT 10SM CLR M01/M09 A3003 RMK AO2 SLP180 T10111094
Loading
Personal Weather Stations






























Interactive Weather Map New forecast layout! Learn more

10-Day Weather Forecast

Advertisements
Track Severe Weather on mobile